createdAt,value
2022-08-19T00:02:00.176Z,7.65
2022-08-19T00:04:32.252Z,4.40
2022-08-19T00:07:01.367Z,4.45
2022-08-19T00:09:31.650Z,4.65
2022-08-19T00:12:00.747Z,7.47
2022-08-19T00:14:32.757Z,7.07
2022-08-19T00:17:02.386Z,12.02
2022-08-19T00:19:31.063Z,5.22
2022-08-19T00:21:59.804Z,6.35
2022-08-19T00:24:29.817Z,8.98
2022-08-19T00:27:25.019Z,13.18
2022-08-19T00:29:52.469Z,10.07
2022-08-19T00:32:21.643Z,9.05
2022-08-19T00:34:50.506Z,11.00
2022-08-19T00:37:19.218Z,9.43
2022-08-19T00:39:49.176Z,9.10
2022-08-19T00:42:19.849Z,12.98
2022-08-19T00:44:49.002Z,9.82
2022-08-19T00:47:17.619Z,11.02
2022-08-19T00:49:51.776Z,8.43
2022-08-19T00:52:24.006Z,10.30
2022-08-19T00:54:54.041Z,12.18
2022-08-19T00:57:28.210Z,10.98
2022-08-19T01:00:02.505Z,13.23
2022-08-19T01:02:35.008Z,10.63
2022-08-19T01:05:05.904Z,15.57
2022-08-19T01:07:38.392Z,8.68
2022-08-19T01:10:09.709Z,9.27
2022-08-19T01:12:41.383Z,11.75
2022-08-19T01:15:12.413Z,8.70
2022-08-19T01:17:42.470Z,11.70
2022-08-19T01:20:13.931Z,11.40
2022-08-19T01:22:47.128Z,13.55
2022-08-19T01:25:16.877Z,10.73
2022-08-19T01:27:49.178Z,11.95
2022-08-19T01:30:21.463Z,15.45
2022-08-19T01:32:50.161Z,18.00
2022-08-19T01:35:19.374Z,12.60
2022-08-19T01:37:53.758Z,13.50
2022-08-19T01:42:51.897Z,13.52
2022-08-19T01:45:21.096Z,12.15
2022-08-19T01:47:59.086Z,13.95
2022-08-19T01:50:30.557Z,10.30
2022-08-19T01:53:06.286Z,16.88
2022-08-19T01:55:41.317Z,11.55
2022-08-19T01:58:15.108Z,11.50
2022-08-19T02:00:46.442Z,11.05
2022-08-19T02:03:15.547Z,9.50
2022-08-19T02:05:47.157Z,9.48
2022-08-19T02:08:17.288Z,8.20
2022-08-19T02:10:46.672Z,11.95
2022-08-19T02:13:16.172Z,10.20
2022-08-19T02:16:09.593Z,10.43
2022-08-19T02:18:38.223Z,9.18
2022-08-19T02:21:07.384Z,11.13
2022-08-19T02:23:37.501Z,13.13
2022-08-19T02:26:06.125Z,10.30
2022-08-19T02:28:34.738Z,11.82
2022-08-19T02:31:03.699Z,13.13
2022-08-19T02:33:32.471Z,8.95
2022-08-19T02:36:01.283Z,11.65
2022-08-19T02:38:28.881Z,11.30
2022-08-19T02:41:00.509Z,15.05
2022-08-19T02:43:33.687Z,11.30
2022-08-19T02:46:02.662Z,17.30
2022-08-19T02:48:31.744Z,10.85
2022-08-19T02:51:00.600Z,12.65
2022-08-19T02:53:30.800Z,12.27
2022-08-19T02:56:00.811Z,11.80
2022-08-19T02:58:29.477Z,11.95
2022-08-19T03:00:59.563Z,14.93
2022-08-19T03:03:28.567Z,17.63
2022-08-19T03:06:11.016Z,14.52
2022-08-19T03:08:40.532Z,16.35
2022-08-19T03:11:15.487Z,12.88
2022-08-19T03:13:45.027Z,14.02
2022-08-19T03:16:14.629Z,14.32
2022-08-19T03:18:43.457Z,11.23
2022-08-19T03:21:12.664Z,11.45
2022-08-19T03:23:41.345Z,10.52
2022-08-19T03:26:16.572Z,14.45
2022-08-19T03:28:49.467Z,11.80
2022-08-19T03:31:43.488Z,12.80
2022-08-19T03:34:12.772Z,10.25
2022-08-19T03:36:42.417Z,9.68
2022-08-19T03:39:12.733Z,12.80
2022-08-19T03:41:46.282Z,10.57
2022-08-19T03:44:20.795Z,13.73
2022-08-19T03:46:50.727Z,12.27
2022-08-19T03:49:20.452Z,10.05
2022-08-19T03:51:50.699Z,8.15
2022-08-19T03:54:21.252Z,15.85
2022-08-19T03:56:52.706Z,9.32
2022-08-19T03:59:27.023Z,17.60
2022-08-19T04:04:25.484Z,8.77
2022-08-19T04:06:58.292Z,15.43
2022-08-19T04:09:28.095Z,9.52
2022-08-19T04:11:59.846Z,10.32
2022-08-19T04:14:31.353Z,8.90
2022-08-19T04:17:01.161Z,9.95
2022-08-19T04:19:31.996Z,10.75
2022-08-19T04:22:00.685Z,12.18
2022-08-19T04:24:29.766Z,15.82
2022-08-19T04:27:02.390Z,10.18
2022-08-19T04:29:31.448Z,10.00
2022-08-19T04:32:08.730Z,10.95
2022-08-19T04:35:01.112Z,14.18
2022-08-19T04:37:35.442Z,10.13
2022-08-19T04:40:24.942Z,10.93
2022-08-19T04:42:55.453Z,10.43
2022-08-19T04:45:24.464Z,10.23
2022-08-19T04:48:26.336Z,11.13
2022-08-19T04:50:47.336Z,12.82
2022-08-19T04:53:16.408Z,11.63
2022-08-19T04:55:45.036Z,13.68
2022-08-19T04:58:15.021Z,8.68
2022-08-19T05:00:44.645Z,14.95
2022-08-19T05:03:14.259Z,15.65
2022-08-19T05:05:44.668Z,10.40
2022-08-19T05:08:15.419Z,11.45
2022-08-19T05:10:45.714Z,16.15
2022-08-19T05:13:15.935Z,13.05
2022-08-19T05:15:44.773Z,18.55
2022-08-19T05:18:31.154Z,10.88
2022-08-19T05:21:16.881Z,12.00
2022-08-19T05:23:46.220Z,9.80
2022-08-19T05:26:14.808Z,9.20
2022-08-19T05:28:44.898Z,8.98
2022-08-19T05:31:14.420Z,14.05
2022-08-19T05:33:43.456Z,10.35
2022-08-19T05:36:12.507Z,12.82
2022-08-19T05:38:41.156Z,14.98
2022-08-19T05:41:11.238Z,9.50
2022-08-19T05:43:40.062Z,12.82
2022-08-19T05:46:10.739Z,11.02
2022-08-19T05:48:39.385Z,10.32
2022-08-19T05:51:09.400Z,12.52
2022-08-19T05:53:39.186Z,12.15
2022-08-19T05:56:08.464Z,9.15
2022-08-19T05:58:37.707Z,10.63
2022-08-19T06:01:07.222Z,9.95
2022-08-19T06:03:38.516Z,9.20
2022-08-19T06:06:11.830Z,11.85
2022-08-19T06:08:40.760Z,10.40
2022-08-19T06:11:21.490Z,10.00
2022-08-19T06:13:52.117Z,8.60
2022-08-19T06:16:28.937Z,15.50
2022-08-19T06:19:00.681Z,10.00
2022-08-19T06:21:31.036Z,7.95
2022-08-19T06:24:27.646Z,12.40
2022-08-19T06:27:00.907Z,11.85
2022-08-19T06:29:33.705Z,7.78
2022-08-19T06:32:04.164Z,11.73
2022-08-19T06:34:35.613Z,13.02
2022-08-19T06:37:06.822Z,11.50
2022-08-19T06:39:37.153Z,9.32
2022-08-19T06:42:10.911Z,11.52
2022-08-19T06:44:43.117Z,14.75
2022-08-19T06:47:14.369Z,12.32
2022-08-19T06:49:45.312Z,15.30
2022-08-19T06:52:15.774Z,8.32
2022-08-19T06:54:44.643Z,9.00
2022-08-19T06:57:25.932Z,15.43
2022-08-19T06:59:54.693Z,10.57
2022-08-19T07:02:27.418Z,7.90
2022-08-19T07:05:00.323Z,9.75
2022-08-19T07:07:29.797Z,7.93
2022-08-19T07:10:01.869Z,8.25
2022-08-19T07:15:05.964Z,8.70
2022-08-19T07:17:35.940Z,10.25
2022-08-19T07:20:09.642Z,11.45
2022-08-19T07:22:40.564Z,9.10
2022-08-19T07:25:10.258Z,10.23
2022-08-19T07:27:39.994Z,9.02
2022-08-19T07:30:14.510Z,12.18
2022-08-19T07:32:43.586Z,11.02
2022-08-19T07:35:14.014Z,11.90
2022-08-19T07:37:45.375Z,6.25
2022-08-19T07:40:14.952Z,7.28
2022-08-19T07:42:44.389Z,9.70
2022-08-19T07:45:13.132Z,11.77
2022-08-19T07:47:49.524Z,7.05
2022-08-19T07:50:22.746Z,9.32
2022-08-19T07:52:52.273Z,6.32
2022-08-19T07:55:42.584Z,7.68
2022-08-19T07:58:14.648Z,8.77
2022-08-19T08:00:43.958Z,8.20
2022-08-19T08:03:12.978Z,6.45
2022-08-19T08:06:00.757Z,5.60
2022-08-19T08:08:48.058Z,7.20
2022-08-19T08:11:20.457Z,8.63
2022-08-19T08:14:01.020Z,8.95
2022-08-19T08:16:35.718Z,9.20
2022-08-19T08:19:20.408Z,9.63
2022-08-19T08:21:57.258Z,6.90
2022-08-19T08:24:28.702Z,3.45
2022-08-19T08:26:58.889Z,6.78
2022-08-19T08:29:34.512Z,11.00
2022-08-19T08:32:14.283Z,15.00
2022-08-19T08:34:52.419Z,13.57
2022-08-19T08:37:23.356Z,8.93
2022-08-19T08:39:52.601Z,9.25
2022-08-19T08:42:27.314Z,13.93
2022-08-19T08:45:00.199Z,6.18
2022-08-19T08:47:33.687Z,10.50
2022-08-19T08:52:37.954Z,11.38
2022-08-19T08:55:11.451Z,8.75
2022-08-19T08:57:57.630Z,8.27
2022-08-19T09:00:29.204Z,9.82
2022-08-19T09:02:59.270Z,12.02
2022-08-19T09:05:39.648Z,12.88
2022-08-19T09:08:19.272Z,9.23
2022-08-19T09:10:55.401Z,5.88
2022-08-19T09:13:37.197Z,10.98
2022-08-19T09:16:09.608Z,7.40
2022-08-19T09:18:43.278Z,5.45
2022-08-19T09:21:12.502Z,7.55
2022-08-19T09:23:45.423Z,12.70
2022-08-19T09:26:20.042Z,6.53
2022-08-19T09:28:50.796Z,9.93
2022-08-19T09:31:21.793Z,6.75
2022-08-19T09:33:52.369Z,12.48
2022-08-19T09:36:34.493Z,11.55
2022-08-19T09:39:16.462Z,11.45
2022-08-19T09:41:47.573Z,13.48
2022-08-19T09:44:18.328Z,11.40
2022-08-19T09:46:48.470Z,6.40
2022-08-19T09:49:18.509Z,11.85
2022-08-19T09:51:51.177Z,6.60
2022-08-19T09:54:23.752Z,7.22
2022-08-19T09:56:54.208Z,10.85
2022-08-19T09:59:23.361Z,13.27
2022-08-19T10:01:52.982Z,5.75
2022-08-19T10:04:22.583Z,9.57
2022-08-19T10:06:53.960Z,12.63
2022-08-19T10:09:34.301Z,9.75
2022-08-19T10:12:04.199Z,11.98
2022-08-19T10:14:35.212Z,5.28
2022-08-19T10:17:18.000Z,7.15
2022-08-19T10:19:55.091Z,5.90
2022-08-19T10:22:25.432Z,6.78
2022-08-19T10:24:56.326Z,6.68
2022-08-19T10:27:26.458Z,11.57
2022-08-19T10:29:55.519Z,7.75
2022-08-19T10:32:32.047Z,10.93
2022-08-19T10:35:06.031Z,7.95
2022-08-19T10:37:35.315Z,7.05
2022-08-19T10:40:08.916Z,5.35
2022-08-19T10:42:39.241Z,7.35
2022-08-19T10:45:10.747Z,8.57
2022-08-19T10:47:39.552Z,10.52
2022-08-19T10:50:28.771Z,14.85
2022-08-19T10:52:58.780Z,6.97
2022-08-19T10:55:46.352Z,10.70
2022-08-19T10:58:16.589Z,13.70
2022-08-19T11:00:46.403Z,13.80
2022-08-19T11:03:15.048Z,19.20
2022-08-19T11:05:43.711Z,10.73
2022-08-19T11:08:22.248Z,2.67
2022-08-19T11:10:54.809Z,13.98
2022-08-19T11:13:24.453Z,11.30
2022-08-19T11:16:03.833Z,4.07
2022-08-19T11:18:35.918Z,6.82
2022-08-19T11:21:12.577Z,5.65
2022-08-19T11:23:41.374Z,7.15
2022-08-19T11:26:12.003Z,7.10
2022-08-19T11:28:40.942Z,4.90
2022-08-19T11:31:12.918Z,9.02
2022-08-19T11:33:41.844Z,4.43
2022-08-19T11:36:17.611Z,6.43
2022-08-19T11:38:49.405Z,6.65
2022-08-19T11:41:21.424Z,4.57
2022-08-19T11:43:50.170Z,7.13
2022-08-19T11:46:19.648Z,8.13
2022-08-19T11:48:49.242Z,5.85
2022-08-19T11:51:19.931Z,9.73
2022-08-19T11:53:48.948Z,4.72
2022-08-19T11:56:19.042Z,11.82
2022-08-19T11:58:47.874Z,6.97
2022-08-19T12:01:18.741Z,3.35
2022-08-19T12:03:48.375Z,7.32
2022-08-19T12:06:19.964Z,7.30
2022-08-19T12:08:49.875Z,6.40
2022-08-19T12:11:20.108Z,10.80
2022-08-19T12:13:48.881Z,6.30
2022-08-19T12:16:22.173Z,4.40
2022-08-19T12:18:51.983Z,3.35
2022-08-19T12:21:22.360Z,7.80
2022-08-19T12:23:55.640Z,2.78
2022-08-19T12:26:26.244Z,7.40
2022-08-19T12:28:57.092Z,5.43
2022-08-19T12:31:26.797Z,5.88
2022-08-19T12:33:55.527Z,9.23
2022-08-19T12:36:24.348Z,8.60
2022-08-19T12:38:53.237Z,7.55
2022-08-19T12:41:23.381Z,5.28
2022-08-19T12:43:53.636Z,4.72
2022-08-19T12:46:25.377Z,6.82
2022-08-19T12:48:56.207Z,4.22
2022-08-19T12:51:26.418Z,7.57
2022-08-19T12:53:55.076Z,7.97
2022-08-19T12:56:23.749Z,9.00
2022-08-19T12:58:53.944Z,7.07
2022-08-19T13:01:23.555Z,4.60
2022-08-19T13:03:54.612Z,6.68
2022-08-19T13:06:23.764Z,10.32
2022-08-19T13:08:55.503Z,8.30
2022-08-19T13:11:27.940Z,8.02
2022-08-19T13:13:58.090Z,9.60
2022-08-19T13:16:28.789Z,6.82
2022-08-19T13:18:58.147Z,7.47
2022-08-19T13:21:28.985Z,4.65
2022-08-19T13:23:58.246Z,6.40
2022-08-19T13:26:28.444Z,8.40
2022-08-19T13:29:15.860Z,7.78
2022-08-19T13:32:02.290Z,8.15
2022-08-19T13:34:35.077Z,7.45
2022-08-19T13:37:05.278Z,6.05
2022-08-19T13:39:34.511Z,9.95
2022-08-19T13:42:04.533Z,12.88
2022-08-19T13:44:36.570Z,12.20
2022-08-19T13:47:08.185Z,7.25
2022-08-19T13:49:38.248Z,3.47
2022-08-19T13:52:07.461Z,12.35
2022-08-19T13:54:36.130Z,7.55
2022-08-19T13:57:05.011Z,4.00
2022-08-19T13:59:33.967Z,12.57
2022-08-19T14:02:06.591Z,7.90
2022-08-19T14:04:35.282Z,5.15
2022-08-19T14:07:04.540Z,9.45
2022-08-19T14:09:33.344Z,14.10
2022-08-19T14:12:02.019Z,9.55
2022-08-19T14:14:31.297Z,6.30
2022-08-19T14:17:00.459Z,10.52
2022-08-19T14:19:30.687Z,11.95
2022-08-19T14:22:00.007Z,8.70
2022-08-19T14:24:28.753Z,9.18
2022-08-19T14:26:57.553Z,8.88
2022-08-19T14:29:26.310Z,11.77
2022-08-19T14:31:55.140Z,7.18
2022-08-19T14:34:24.435Z,8.02
2022-08-19T14:36:54.581Z,10.15
2022-08-19T14:39:23.185Z,9.88
2022-08-19T14:41:51.808Z,10.38
2022-08-19T14:44:20.661Z,8.18
2022-08-19T14:46:49.829Z,9.77
2022-08-19T14:49:19.636Z,12.60
2022-08-19T14:51:48.870Z,8.43
2022-08-19T14:54:19.190Z,9.60
2022-08-19T14:56:47.904Z,12.73
2022-08-19T14:59:16.702Z,15.35
2022-08-19T15:01:45.703Z,12.55
2022-08-19T15:04:14.373Z,15.32
2022-08-19T15:06:43.429Z,16.73
2022-08-19T15:09:12.641Z,17.65
2022-08-19T15:11:44.160Z,13.15
2022-08-19T15:14:12.815Z,15.18
2022-08-19T15:16:42.882Z,17.55
2022-08-19T15:19:13.151Z,13.18
2022-08-19T15:21:41.970Z,14.10
2022-08-19T15:24:10.633Z,15.52
2022-08-19T15:26:39.290Z,12.45
2022-08-19T15:29:09.447Z,19.48
2022-08-19T15:31:38.905Z,11.35
2022-08-19T15:34:08.101Z,11.07
2022-08-19T15:36:37.472Z,8.18
2022-08-19T15:39:10.079Z,8.27
2022-08-19T15:41:41.342Z,12.18
2022-08-19T15:44:14.866Z,7.25
2022-08-19T15:46:44.952Z,6.97
2022-08-19T15:49:15.397Z,6.40
2022-08-19T15:51:45.956Z,8.35
2022-08-19T15:54:17.336Z,9.30
2022-08-19T15:57:05.710Z,9.20
2022-08-19T15:59:53.839Z,7.80
2022-08-19T16:02:42.674Z,10.07
2022-08-19T16:05:34.221Z,6.35
2022-08-19T16:08:02.969Z,8.15
2022-08-19T16:10:31.671Z,9.55
2022-08-19T16:13:00.564Z,9.35
2022-08-19T16:15:31.999Z,12.98
2022-08-19T16:18:02.421Z,6.22
2022-08-19T16:20:31.700Z,8.98
2022-08-19T16:23:03.660Z,8.80
2022-08-19T16:25:33.133Z,4.93
2022-08-19T16:28:07.532Z,15.02
2022-08-19T16:30:43.108Z,11.32
2022-08-19T16:33:22.856Z,6.88
2022-08-19T16:36:00.319Z,7.05
2022-08-19T16:38:37.039Z,10.15
2022-08-19T16:41:06.103Z,5.68
2022-08-19T16:43:35.574Z,11.48
2022-08-19T16:46:05.773Z,9.48
2022-08-19T16:48:34.636Z,11.50
2022-08-19T16:51:09.558Z,6.30
2022-08-19T16:53:39.450Z,7.88
2022-08-19T16:56:09.776Z,7.50
2022-08-19T16:58:38.617Z,4.53
2022-08-19T17:01:10.570Z,12.35
2022-08-19T17:03:40.064Z,11.27
2022-08-19T17:06:20.181Z,11.88
2022-08-19T17:08:50.748Z,3.30
2022-08-19T17:11:19.979Z,4.45
2022-08-19T17:13:49.543Z,7.53
2022-08-19T17:16:22.183Z,8.00
2022-08-19T17:18:52.965Z,7.40
2022-08-19T17:21:27.872Z,6.15
2022-08-19T17:23:57.859Z,8.73
2022-08-19T17:26:27.467Z,7.10
2022-08-19T17:28:57.981Z,8.30
2022-08-19T17:31:30.709Z,8.00
2022-08-19T17:33:59.895Z,5.32
2022-08-19T17:36:31.400Z,12.80
2022-08-19T17:39:01.942Z,7.03
2022-08-19T17:41:34.090Z,9.50
2022-08-19T17:44:04.364Z,10.20
2022-08-19T17:46:35.399Z,5.80
2022-08-19T17:49:03.959Z,8.73
2022-08-19T17:51:45.140Z,9.38
2022-08-19T17:54:16.166Z,7.78
2022-08-19T17:56:45.471Z,8.95
2022-08-19T17:59:14.645Z,9.40
2022-08-19T18:01:53.083Z,10.40
2022-08-19T18:04:25.630Z,5.60
2022-08-19T18:06:55.719Z,11.45
2022-08-19T18:09:26.417Z,7.40
2022-08-19T18:11:56.988Z,8.43
2022-08-19T18:14:33.494Z,14.90
2022-08-19T18:17:09.463Z,11.05
2022-08-19T18:19:41.275Z,8.48
2022-08-19T18:22:13.465Z,7.75
2022-08-19T18:24:45.817Z,6.97
2022-08-19T18:27:15.515Z,6.55
2022-08-19T18:29:44.085Z,9.15
2022-08-19T18:32:14.545Z,10.07
2022-08-19T18:34:43.868Z,4.93
2022-08-19T18:37:13.305Z,7.95
2022-08-19T18:39:59.386Z,4.25
2022-08-19T18:42:45.489Z,10.65
2022-08-19T18:45:31.726Z,6.32
2022-08-19T18:48:27.796Z,10.60
2022-08-19T18:50:58.557Z,7.47
2022-08-19T18:53:31.039Z,7.80
2022-08-19T18:55:59.958Z,8.52
2022-08-19T18:58:32.512Z,13.68
2022-08-19T19:01:01.711Z,5.03
2022-08-19T19:03:31.953Z,6.90
2022-08-19T19:06:00.612Z,8.32
2022-08-19T19:08:29.335Z,7.45
2022-08-19T19:11:01.092Z,9.65
2022-08-19T19:13:29.930Z,6.20
2022-08-19T19:16:00.026Z,8.80
2022-08-19T19:18:28.750Z,11.55
2022-08-19T19:20:59.895Z,10.35
2022-08-19T19:23:28.751Z,4.18
2022-08-19T19:25:57.370Z,7.38
2022-08-19T19:28:28.697Z,5.57
2022-08-19T19:30:58.964Z,5.57
2022-08-19T19:33:28.072Z,4.93
2022-08-19T19:35:56.853Z,6.05
2022-08-19T19:38:27.149Z,7.75
2022-08-19T19:40:55.689Z,11.30
2022-08-19T19:43:24.326Z,5.28
2022-08-19T19:45:52.968Z,8.95
2022-08-19T19:48:22.622Z,5.55
2022-08-19T19:50:56.069Z,11.50
2022-08-19T19:53:27.784Z,8.68
2022-08-19T19:55:58.970Z,7.20
2022-08-19T19:58:29.321Z,10.82
2022-08-19T20:00:59.220Z,11.23
2022-08-19T20:03:30.068Z,3.65
2022-08-19T20:05:59.661Z,28.13
2022-08-19T20:08:47.521Z,6.65
2022-08-19T20:11:31.680Z,7.93
2022-08-19T20:14:02.784Z,9.70
2022-08-19T20:16:31.866Z,6.82
2022-08-19T20:19:01.759Z,8.95
2022-08-19T20:21:32.640Z,17.70
2022-08-19T20:24:09.866Z,8.10
2022-08-19T20:26:39.108Z,11.63
2022-08-19T20:29:13.522Z,8.75
2022-08-19T20:31:59.337Z,26.08
2022-08-19T20:34:29.605Z,10.20
2022-08-19T20:36:58.292Z,8.40
2022-08-19T20:39:29.457Z,4.65
2022-08-19T20:41:58.444Z,7.22
2022-08-19T20:44:27.194Z,10.57
2022-08-19T20:46:59.400Z,6.40
2022-08-19T20:49:30.420Z,7.88
2022-08-19T20:51:59.164Z,9.55
2022-08-19T20:54:29.772Z,11.43
2022-08-19T20:56:58.748Z,7.72
2022-08-19T20:59:27.555Z,3.55
2022-08-19T21:01:56.557Z,9.77
2022-08-19T21:04:25.222Z,7.20
2022-08-19T21:06:54.927Z,6.78
2022-08-19T21:09:23.759Z,6.30
2022-08-19T21:11:53.911Z,9.68
2022-08-19T21:14:23.296Z,7.72
2022-08-19T21:16:52.018Z,12.95
2022-08-19T21:19:23.969Z,5.13
2022-08-19T21:21:53.145Z,10.40
2022-08-19T21:24:21.851Z,4.70
2022-08-19T21:27:01.517Z,11.50
2022-08-19T21:29:32.169Z,10.10
2022-08-19T21:32:00.762Z,7.07
2022-08-19T21:34:29.748Z,9.68
2022-08-19T21:36:58.593Z,8.85
2022-08-19T21:39:27.254Z,6.90
2022-08-19T21:41:56.354Z,6.85
2022-08-19T21:44:26.320Z,11.80
2022-08-19T21:46:54.898Z,4.70
2022-08-19T21:49:23.588Z,6.30
2022-08-19T21:51:52.759Z,8.38
2022-08-19T21:54:21.395Z,9.45
2022-08-19T21:56:50.538Z,10.45
2022-08-19T21:59:19.514Z,7.57
2022-08-19T22:01:56.648Z,7.82
2022-08-19T22:04:34.100Z,7.40
2022-08-19T22:07:02.810Z,7.75
2022-08-19T22:09:31.360Z,11.43
2022-08-19T22:11:59.976Z,16.08
2022-08-19T22:14:28.601Z,10.35
2022-08-19T22:16:58.710Z,10.82
2022-08-19T22:19:27.294Z,18.35
2022-08-19T22:21:56.445Z,14.93
2022-08-19T22:24:25.667Z,8.68
2022-08-19T22:26:54.326Z,9.82
2022-08-19T22:29:33.596Z,15.32
2022-08-19T22:32:25.637Z,15.70
2022-08-19T22:34:53.363Z,18.95
2022-08-19T22:37:25.861Z,12.65
2022-08-19T22:39:54.621Z,14.38
2022-08-19T22:42:24.956Z,15.90
2022-08-19T22:44:59.997Z,19.23
2022-08-19T22:47:32.163Z,15.07
2022-08-19T22:50:02.832Z,16.77
2022-08-19T22:52:31.888Z,13.45
2022-08-19T22:55:02.526Z,14.10
2022-08-19T22:57:32.132Z,14.45
2022-08-19T23:00:01.467Z,14.90
2022-08-19T23:02:38.577Z,14.68
2022-08-19T23:05:22.000Z,13.02
2022-08-19T23:07:52.711Z,14.20
2022-08-19T23:10:26.863Z,11.77
2022-08-19T23:12:58.364Z,16.02
2022-08-19T23:15:29.484Z,14.20
2022-08-19T23:18:00.810Z,16.48
2022-08-19T23:20:32.700Z,21.52
2022-08-19T23:23:03.715Z,19.83
2022-08-19T23:25:33.604Z,18.08
2022-08-19T23:28:19.625Z,18.77
2022-08-19T23:30:50.200Z,20.73
2022-08-19T23:33:24.788Z,22.40
2022-08-19T23:35:55.067Z,29.63
2022-08-19T23:38:25.581Z,25.75
2022-08-19T23:40:59.261Z,27.88
2022-08-19T23:43:29.478Z,30.23
2022-08-19T23:46:00.878Z,30.33
2022-08-19T23:48:33.197Z,27.73
2022-08-19T23:51:03.702Z,27.73
2022-08-19T23:53:32.507Z,35.67
2022-08-19T23:56:01.488Z,34.00
2022-08-19T23:58:32.025Z,35.17
